createdAt,value
2018-05-15T00:01:40.986Z,96460
2018-05-15T00:04:11.894Z,96463
2018-05-15T00:06:44.745Z,96459
2018-05-15T00:09:14.269Z,96460
2018-05-15T00:11:42.518Z,96454
2018-05-15T00:14:14.000Z,96452
2018-05-15T00:16:43.069Z,96445
2018-05-15T00:19:13.233Z,96439
2018-05-15T00:21:44.216Z,96443
2018-05-15T00:24:17.765Z,96440
2018-05-15T00:26:50.640Z,96442
2018-05-15T00:29:20.165Z,96439
2018-05-15T00:32:02.772Z,96439
2018-05-15T00:34:34.655Z,96440
2018-05-15T00:37:07.878Z,96444
2018-05-15T00:39:49.007Z,96447
2018-05-15T00:42:30.815Z,96446
2018-05-15T00:45:02.244Z,96441
2018-05-15T00:47:31.921Z,96435
2018-05-15T00:50:06.181Z,96432
2018-05-15T00:52:44.956Z,96440
2018-05-15T00:55:32.420Z,96436
2018-05-15T00:58:05.208Z,96427
2018-05-15T01:00:39.174Z,96425
2018-05-15T01:03:13.985Z,96421
2018-05-15T01:05:43.554Z,96426
2018-05-15T01:08:22.409Z,96422
2018-05-15T01:10:50.731Z,96417
2018-05-15T01:13:21.333Z,96411
2018-05-15T01:15:52.449Z,96401
2018-05-15T01:18:20.951Z,96399
2018-05-15T01:20:49.222Z,96399
2018-05-15T01:23:17.527Z,96404
2018-05-15T01:25:46.805Z,96405
2018-05-15T01:28:19.641Z,96403
2018-05-15T01:31:06.991Z,96406
2018-05-15T01:33:38.503Z,96410
2018-05-15T01:36:10.149Z,96409
2018-05-15T01:38:51.257Z,96412
2018-05-15T01:41:23.460Z,96410
2018-05-15T01:43:51.779Z,96417
2018-05-15T01:46:20.047Z,96420
2018-05-15T01:48:48.298Z,96420
2018-05-15T01:51:19.971Z,96418
2018-05-15T01:53:49.284Z,96428
2018-05-15T01:56:21.520Z,96432
2018-05-15T01:58:55.253Z,96433
2018-05-15T02:01:26.059Z,96439
2018-05-15T02:03:58.559Z,96444
2018-05-15T02:06:26.836Z,96444
2018-05-15T02:08:59.928Z,96439
2018-05-15T02:11:30.283Z,96441
2018-05-15T02:14:01.296Z,96439
2018-05-15T02:16:33.282Z,96445
2018-05-15T02:19:04.349Z,96442
2018-05-15T02:21:33.565Z,96439
2018-05-15T02:24:03.819Z,96443
2018-05-15T02:26:35.501Z,96439
2018-05-15T02:29:06.518Z,96438
2018-05-15T02:31:41.523Z,96434
2018-05-15T02:34:09.803Z,96426
2018-05-15T02:36:44.054Z,96421
2018-05-15T02:39:16.746Z,96413
2018-05-15T02:41:46.741Z,96416
2018-05-15T02:44:14.991Z,96423
2018-05-15T02:46:47.683Z,96421
2018-05-15T02:49:15.980Z,96421
2018-05-15T02:51:44.220Z,96420
2018-05-15T02:54:18.841Z,96420
2018-05-15T02:56:48.854Z,96417
2018-05-15T02:59:24.368Z,96423
2018-05-15T03:01:55.343Z,96426
2018-05-15T03:04:33.667Z,96422
2018-05-15T03:07:08.659Z,96424
2018-05-15T03:09:39.670Z,96425
2018-05-15T03:12:07.931Z,96426
2018-05-15T03:14:46.733Z,96420
2018-05-15T03:17:15.012Z,96426
2018-05-15T03:19:43.401Z,96417
2018-05-15T03:22:13.649Z,96419
2018-05-15T03:24:45.042Z,96420
2018-05-15T03:27:32.039Z,96417
2018-05-15T03:30:26.141Z,96425
2018-05-15T03:33:06.620Z,96425
2018-05-15T03:35:36.854Z,96426
2018-05-15T03:38:06.155Z,96426
2018-05-15T03:40:52.183Z,96428
2018-05-15T03:43:29.196Z,96434
2018-05-15T03:46:09.119Z,96434
2018-05-15T03:48:44.682Z,96436
2018-05-15T03:51:21.538Z,96431
2018-05-15T03:53:58.035Z,96431
2018-05-15T03:56:31.075Z,96430
2018-05-15T03:59:00.963Z,96437
2018-05-15T04:01:50.510Z,96439
2018-05-15T04:04:38.607Z,96440
2018-05-15T04:07:27.855Z,96440
2018-05-15T04:09:58.079Z,96437
2018-05-15T04:12:28.328Z,96440
2018-05-15T04:14:56.606Z,96444
2018-05-15T04:17:24.865Z,96449
2018-05-15T04:19:54.878Z,96458
2018-05-15T04:22:23.728Z,96451
2018-05-15T04:24:54.801Z,96454
2018-05-15T04:27:23.106Z,96458
2018-05-15T04:29:53.097Z,96467
2018-05-15T04:32:27.628Z,96473
2018-05-15T04:35:09.170Z,96475
2018-05-15T04:37:49.399Z,96479
2018-05-15T04:40:28.254Z,96472
2018-05-15T04:43:03.222Z,96477
2018-05-15T04:45:31.481Z,96477
2018-05-15T04:48:23.231Z,96478
2018-05-15T04:51:06.163Z,96481
2018-05-15T04:53:48.814Z,96483
2018-05-15T04:56:32.468Z,96496
2018-05-15T04:59:06.524Z,96497
2018-05-15T05:01:45.802Z,96497
2018-05-15T05:04:14.227Z,96495
2018-05-15T05:06:43.556Z,96492
2018-05-15T05:09:26.615Z,96492
2018-05-15T05:12:05.553Z,96490
2018-05-15T05:14:51.840Z,96496
2018-05-15T05:17:21.079Z,96493
2018-05-15T05:19:55.486Z,96499
2018-05-15T05:22:24.807Z,96497
2018-05-15T05:24:53.079Z,96498
2018-05-15T05:27:22.408Z,96493
2018-05-15T05:29:56.464Z,96487
2018-05-15T05:32:25.901Z,96484
2018-05-15T05:34:57.847Z,96486
2018-05-15T05:37:26.126Z,96488
2018-05-15T05:39:54.540Z,96494
2018-05-15T05:42:23.594Z,96495
2018-05-15T05:44:51.876Z,96496
2018-05-15T05:47:27.126Z,96499
2018-05-15T05:49:57.513Z,96500
2018-05-15T05:52:38.506Z,96506
2018-05-15T05:55:17.727Z,96502
2018-05-15T05:57:52.687Z,96501
2018-05-15T06:00:22.033Z,96500
2018-05-15T06:03:07.836Z,96501
2018-05-15T06:05:41.834Z,96504
2018-05-15T06:08:13.763Z,96502
2018-05-15T06:10:42.010Z,96499
2018-05-15T06:13:11.309Z,96501
2018-05-15T06:15:51.875Z,96499
2018-05-15T06:18:37.262Z,96505
2018-05-15T06:21:09.848Z,96508
2018-05-15T06:23:39.138Z,96504
2018-05-15T06:26:14.162Z,96506
2018-05-15T06:28:43.459Z,96511
2018-05-15T06:31:14.917Z,96506
2018-05-15T06:33:46.806Z,96506
2018-05-15T06:36:16.091Z,96506
2018-05-15T06:38:47.853Z,96507
2018-05-15T06:41:22.208Z,96507
2018-05-15T06:43:50.474Z,96507
2018-05-15T06:46:23.943Z,96509
2018-05-15T06:48:52.226Z,96511
2018-05-15T06:51:24.354Z,96509
2018-05-15T06:54:00.832Z,96510
2018-05-15T06:56:29.153Z,96510
2018-05-15T06:59:02.022Z,96510
2018-05-15T07:01:36.317Z,96515
2018-05-15T07:04:14.853Z,96516
2018-05-15T07:06:46.994Z,96520
2018-05-15T07:09:18.928Z,96523
2018-05-15T07:11:47.165Z,96518
2018-05-15T07:14:18.191Z,96527
2018-05-15T07:16:46.479Z,96530
2018-05-15T07:19:18.899Z,96525
2018-05-15T07:21:48.031Z,96527
2018-05-15T07:24:17.361Z,96534
2018-05-15T07:26:56.758Z,96537
2018-05-15T07:29:27.050Z,96535
2018-05-15T07:31:59.179Z,96543
2018-05-15T07:34:36.522Z,96538
2018-05-15T07:37:08.736Z,96532
2018-05-15T07:39:49.140Z,96539
2018-05-15T07:42:18.395Z,96538
2018-05-15T07:45:05.862Z,96541
2018-05-15T07:47:37.690Z,96540
2018-05-15T07:50:05.923Z,96539
2018-05-15T07:52:38.254Z,96548
2018-05-15T07:55:11.019Z,96543
2018-05-15T07:57:39.424Z,96547
2018-05-15T08:00:10.450Z,96547
2018-05-15T08:02:53.589Z,96542
2018-05-15T08:05:23.967Z,96543
2018-05-15T08:07:57.604Z,96541
2018-05-15T08:10:38.616Z,96550
2018-05-15T08:13:07.986Z,96552
2018-05-15T08:15:48.258Z,96560
2018-05-15T08:18:17.803Z,96565
2018-05-15T08:20:57.919Z,96560
2018-05-15T08:23:27.179Z,96559
2018-05-15T08:26:05.436Z,96555
2018-05-15T08:28:42.240Z,96559
2018-05-15T08:31:18.892Z,96568
2018-05-15T08:33:54.844Z,96573
2018-05-15T08:36:25.106Z,96572
2018-05-15T08:39:07.544Z,96564
2018-05-15T08:41:36.596Z,96566
2018-05-15T08:44:05.915Z,96563
2018-05-15T08:46:37.986Z,96572
2018-05-15T08:49:16.251Z,96567
2018-05-15T08:51:44.573Z,96569
2018-05-15T08:54:14.026Z,96568
2018-05-15T08:56:57.160Z,96575
2018-05-15T08:59:27.411Z,96568
2018-05-15T09:02:07.214Z,96576
2018-05-15T09:04:42.586Z,96572
2018-05-15T09:07:21.724Z,96576
2018-05-15T09:09:49.993Z,96572
2018-05-15T09:12:31.023Z,96572
2018-05-15T09:15:03.252Z,96570
2018-05-15T09:17:38.584Z,96569
2018-05-15T09:20:14.303Z,96570
2018-05-15T09:22:49.987Z,96570
2018-05-15T09:25:22.300Z,96574
2018-05-15T09:27:54.751Z,96575
2018-05-15T09:30:26.493Z,96572
2018-05-15T09:32:59.306Z,96587
2018-05-15T09:35:33.061Z,96599
2018-05-15T09:38:11.606Z,96620
2018-05-15T09:40:54.995Z,96616
2018-05-15T09:46:52.929Z,96593
2018-05-15T09:49:36.093Z,96587
2018-05-15T09:52:12.109Z,96581
2018-05-15T09:54:44.341Z,96573
2018-05-15T09:57:36.232Z,96572
2018-05-15T10:00:10.105Z,96576
2018-05-15T10:02:44.413Z,96564
2018-05-15T10:05:18.458Z,96557
2018-05-15T10:07:46.829Z,96553
2018-05-15T10:10:21.847Z,96551
2018-05-15T10:13:03.192Z,96548
2018-05-15T10:15:32.479Z,96552
2018-05-15T10:18:00.814Z,96555
2018-05-15T10:20:51.142Z,96553
2018-05-15T10:23:23.675Z,96562
2018-05-15T10:25:53.962Z,96559
2018-05-15T10:28:27.198Z,96559
2018-05-15T10:31:08.519Z,96571
2018-05-15T10:33:49.721Z,96570
2018-05-15T10:36:25.303Z,96572
2018-05-15T10:39:01.125Z,96573
2018-05-15T10:41:37.365Z,96582
2018-05-15T10:44:13.963Z,96582
2018-05-15T10:46:42.296Z,96585
2018-05-15T10:49:12.589Z,96588
2018-05-15T10:51:42.873Z,96578
2018-05-15T10:54:19.073Z,96579
2018-05-15T10:56:49.295Z,96577
2018-05-15T10:59:18.744Z,96578
2018-05-15T11:02:06.636Z,96570
2018-05-15T11:04:39.723Z,96563
2018-05-15T11:07:12.557Z,96550
2018-05-15T11:09:41.605Z,96550
2018-05-15T11:12:11.599Z,96554
2018-05-15T11:14:44.092Z,96544
2018-05-15T11:17:12.487Z,96542
2018-05-15T11:19:59.004Z,96541
2018-05-15T11:22:46.455Z,96541
2018-05-15T11:25:33.553Z,96543
2018-05-15T11:28:02.844Z,96540
2018-05-15T11:30:33.261Z,96530
2018-05-15T11:33:21.660Z,96524
2018-05-15T11:35:55.692Z,96519
2018-05-15T11:38:25.780Z,96507
2018-05-15T11:41:19.174Z,96513
2018-05-15T11:44:05.585Z,96512
2018-05-15T11:46:47.364Z,96515
2018-05-15T11:49:26.784Z,96501
2018-05-15T11:52:03.478Z,96503
2018-05-15T11:54:48.555Z,96499
2018-05-15T11:57:20.966Z,96500
2018-05-15T11:59:59.682Z,96487
2018-05-15T12:02:41.457Z,96484
2018-05-15T12:05:13.680Z,96485
2018-05-15T12:07:41.926Z,96494
2018-05-15T12:10:15.206Z,96486
2018-05-15T12:12:43.653Z,96489
2018-05-15T12:15:14.079Z,96491
2018-05-15T12:17:42.447Z,96483
2018-05-15T12:20:14.151Z,96471
2018-05-15T12:22:43.470Z,96461
2018-05-15T12:25:12.753Z,96449
2018-05-15T12:27:43.322Z,96446
2018-05-15T12:30:11.797Z,96445
2018-05-15T12:32:43.316Z,96457
2018-05-15T12:35:16.467Z,96446
2018-05-15T12:37:44.770Z,96468
2018-05-15T12:40:16.852Z,96484
2018-05-15T12:42:52.116Z,96503
2018-05-15T12:45:27.279Z,96512
2018-05-15T12:47:56.802Z,96518
2018-05-15T12:50:35.559Z,96524
2018-05-15T12:53:09.484Z,96524
2018-05-15T12:55:40.915Z,96527
2018-05-15T12:58:09.254Z,96521
2018-05-15T13:00:38.523Z,96525
2018-05-15T13:03:09.644Z,96538
2018-05-15T13:05:38.562Z,96558
2018-05-15T13:08:13.437Z,96562
2018-05-15T13:10:47.955Z,96560
2018-05-15T13:13:17.766Z,96559
2018-05-15T13:15:54.696Z,96559
2018-05-15T13:18:29.227Z,96564
2018-05-15T13:21:04.662Z,96560
2018-05-15T13:23:43.529Z,96564
2018-05-15T13:26:12.099Z,96562
2018-05-15T13:28:45.247Z,96573
2018-05-15T13:31:18.542Z,96574
2018-05-15T13:34:04.757Z,96581
2018-05-15T13:36:38.514Z,96572
2018-05-15T13:39:11.551Z,96575
2018-05-15T13:41:42.750Z,96574
2018-05-15T13:44:15.788Z,96578
2018-05-15T13:46:48.415Z,96581
2018-05-15T13:49:20.370Z,96576
2018-05-15T13:51:50.781Z,96568
2018-05-15T13:54:22.186Z,96568
2018-05-15T13:56:51.947Z,96568
2018-05-15T13:59:39.248Z,96571
2018-05-15T14:02:17.503Z,96564
2018-05-15T14:04:56.649Z,96559
2018-05-15T14:07:24.905Z,96562
2018-05-15T14:09:57.736Z,96569
2018-05-15T14:12:27.195Z,96571
2018-05-15T14:14:58.179Z,96567
2018-05-15T14:17:29.274Z,96574
2018-05-15T14:20:06.160Z,96577
2018-05-15T14:22:45.972Z,96572
2018-05-15T14:25:16.552Z,96576
2018-05-15T14:27:55.813Z,96565
2018-05-15T14:30:25.030Z,96572
2018-05-15T14:32:58.104Z,96560
2018-05-15T14:35:44.359Z,96554
2018-05-15T14:38:24.675Z,96543
2018-05-15T14:40:53.934Z,96546
2018-05-15T14:43:32.103Z,96543
2018-05-15T14:46:00.424Z,96541
2018-05-15T14:48:28.700Z,96537
2018-05-15T14:54:13.276Z,96543
2018-05-15T14:56:41.666Z,96547
2018-05-15T14:59:28.863Z,96545
2018-05-15T15:02:01.443Z,96544
2018-05-15T15:04:30.733Z,96543
2018-05-15T15:07:03.974Z,96549
2018-05-15T15:09:38.099Z,96556
2018-05-15T15:12:09.607Z,96561
2018-05-15T15:14:43.479Z,96552
2018-05-15T15:17:22.196Z,96561
2018-05-15T15:19:59.779Z,96560
2018-05-15T15:22:28.155Z,96565
2018-05-15T15:25:07.877Z,96566
2018-05-15T15:27:57.351Z,96577
2018-05-15T15:30:28.366Z,96584
2018-05-15T15:32:56.759Z,96584
2018-05-15T15:35:30.699Z,96580
2018-05-15T15:38:09.348Z,96591
2018-05-15T15:40:57.976Z,96592
2018-05-15T15:43:27.365Z,96598
2018-05-15T15:46:06.127Z,96612
2018-05-15T15:48:40.158Z,96621
2018-05-15T15:51:28.381Z,96633
2018-05-15T15:54:26.715Z,96651
2018-05-15T15:57:09.632Z,96672
2018-05-15T15:59:43.206Z,96679
2018-05-15T16:02:20.888Z,96677
2018-05-15T16:05:03.768Z,96653
2018-05-15T16:07:41.902Z,96630
2018-05-15T16:10:17.550Z,96622
2018-05-15T16:12:53.409Z,96608
2018-05-15T16:15:30.588Z,96612
2018-05-15T16:18:00.565Z,96614
2018-05-15T16:20:29.628Z,96613
2018-05-15T16:23:03.469Z,96616
2018-05-15T16:25:34.189Z,96623
2018-05-15T16:28:06.760Z,96619
2018-05-15T16:30:35.001Z,96627
2018-05-15T16:33:13.447Z,96632
2018-05-15T16:35:49.051Z,96631
2018-05-15T16:38:25.334Z,96644
2018-05-15T16:41:03.208Z,96645
2018-05-15T16:43:38.072Z,96652
2018-05-15T16:46:12.712Z,96658
2018-05-15T16:48:40.999Z,96661
2018-05-15T16:51:09.280Z,96673
2018-05-15T16:53:41.662Z,96681
2018-05-15T16:56:28.828Z,96703
2018-05-15T16:58:57.135Z,96734
2018-05-15T17:01:28.498Z,96728
2018-05-15T17:04:03.836Z,96737
2018-05-15T17:06:38.703Z,96744
2018-05-15T17:09:08.080Z,96745
2018-05-15T17:11:39.107Z,96737
2018-05-15T17:14:07.371Z,96732
2018-05-15T17:16:41.710Z,96726
2018-05-15T17:19:35.846Z,96727
2018-05-15T17:22:16.092Z,96715
2018-05-15T17:24:48.582Z,96713
2018-05-15T17:27:16.901Z,96716
2018-05-15T17:29:50.862Z,96720
2018-05-15T17:32:21.284Z,96725
2018-05-15T17:34:50.499Z,96724
2018-05-15T17:37:18.766Z,96722
2018-05-15T17:39:48.528Z,96721
2018-05-15T17:42:22.050Z,96722
2018-05-15T17:45:09.738Z,96723
2018-05-15T17:47:45.235Z,96724
2018-05-15T17:50:14.609Z,96720
2018-05-15T17:52:45.617Z,96718
2018-05-15T17:55:14.962Z,96707
2018-05-15T17:57:49.893Z,96699
2018-05-15T18:00:18.336Z,96691
2018-05-15T18:02:48.069Z,96690
2018-05-15T18:05:24.504Z,96700
2018-05-15T18:07:58.421Z,96697
2018-05-15T18:10:43.962Z,96697
2018-05-15T18:13:28.408Z,96708
2018-05-15T18:16:02.016Z,96714
2018-05-15T18:18:32.311Z,96706
2018-05-15T18:21:12.857Z,96714
2018-05-15T18:23:41.105Z,96719
2018-05-15T18:26:11.802Z,96719
2018-05-15T18:28:46.746Z,96718
2018-05-15T18:31:21.074Z,96715
2018-05-15T18:33:52.900Z,96712
2018-05-15T18:36:34.230Z,96709
2018-05-15T18:39:04.706Z,96709
2018-05-15T18:41:35.000Z,96717
2018-05-15T18:44:04.303Z,96714
2018-05-15T18:46:32.583Z,96716
2018-05-15T18:49:00.862Z,96712
2018-05-15T18:51:32.041Z,96707
2018-05-15T18:54:03.770Z,96703
2018-05-15T18:56:33.055Z,96704
2018-05-15T18:59:04.949Z,96714
2018-05-15T19:01:36.042Z,96719
2018-05-15T19:04:06.976Z,96729
2018-05-15T19:06:35.739Z,96740
2018-05-15T19:09:04.143Z,96740
2018-05-15T19:11:32.453Z,96745
2018-05-15T19:14:01.578Z,96748
2018-05-15T19:16:30.898Z,96755
2018-05-15T19:19:00.193Z,96762
2018-05-15T19:21:34.460Z,96769
2018-05-15T19:24:08.530Z,96774
2018-05-15T19:26:39.715Z,96780
2018-05-15T19:29:38.037Z,96767
2018-05-15T19:32:14.271Z,96781
2018-05-15T19:34:48.194Z,96790
2018-05-15T19:37:22.740Z,96798
2018-05-15T19:39:57.099Z,96798
2018-05-15T19:42:27.219Z,96812
2018-05-15T19:44:56.495Z,96814
2018-05-15T19:47:26.817Z,96812
2018-05-15T19:50:06.998Z,96818
2018-05-15T19:52:36.288Z,96820
2018-05-15T19:55:12.063Z,96819
2018-05-15T19:57:41.171Z,96821
2018-05-15T20:00:10.502Z,96826
2018-05-15T20:02:40.098Z,96829
2018-05-15T20:05:12.094Z,96831
2018-05-15T20:07:41.513Z,96823
2018-05-15T20:10:19.594Z,96825
2018-05-15T20:12:55.924Z,96834
2018-05-15T20:15:24.223Z,96830
2018-05-15T20:17:54.095Z,96835
2018-05-15T20:20:30.334Z,96834
2018-05-15T20:23:03.735Z,96829
2018-05-15T20:25:36.563Z,96820
2018-05-15T20:28:09.504Z,96817
2018-05-15T20:30:37.903Z,96816
2018-05-15T20:33:06.184Z,96823
2018-05-15T20:35:35.475Z,96818
2018-05-15T20:41:06.425Z,96826
2018-05-15T20:43:35.675Z,96825
2018-05-15T20:46:08.616Z,96830
2018-05-15T20:48:37.137Z,96824
2018-05-15T20:51:07.366Z,96829
2018-05-15T20:53:36.723Z,96832
2018-05-15T20:56:05.961Z,96829
2018-05-15T20:58:37.145Z,96828
2018-05-15T21:01:05.956Z,96831
2018-05-15T21:03:38.883Z,96832
2018-05-15T21:06:07.225Z,96836
2018-05-15T21:08:50.534Z,96839
2018-05-15T21:11:24.241Z,96847
2018-05-15T21:14:05.692Z,96856
2018-05-15T21:16:37.227Z,96856
2018-05-15T21:19:06.978Z,96871
2018-05-15T21:21:37.268Z,96876
2018-05-15T21:24:08.280Z,96878
2018-05-15T21:26:42.010Z,96879
2018-05-15T21:29:18.133Z,96878
2018-05-15T21:32:01.073Z,96877
2018-05-15T21:34:30.431Z,96876
2018-05-15T21:37:04.204Z,96877
2018-05-15T21:39:40.590Z,96872
2018-05-15T21:42:17.843Z,96866
2018-05-15T21:44:48.915Z,96867
2018-05-15T21:47:18.678Z,96860
2018-05-15T21:49:48.053Z,96857
2018-05-15T21:52:24.476Z,96857
2018-05-15T21:54:58.639Z,96857
2018-05-15T21:57:28.950Z,96858
2018-05-15T21:59:59.021Z,96859
2018-05-15T22:02:28.077Z,96856
2018-05-15T22:04:56.370Z,96856
2018-05-15T22:07:24.867Z,96857
2018-05-15T22:09:59.655Z,96858
2018-05-15T22:12:51.694Z,96858
2018-05-15T22:15:44.154Z,96860
2018-05-15T22:18:36.855Z,96858
2018-05-15T22:21:25.074Z,96857
2018-05-15T22:23:55.304Z,96864
2018-05-15T22:26:28.437Z,96860
2018-05-15T22:28:57.343Z,96861
2018-05-15T22:31:38.502Z,96854
2018-05-15T22:34:17.879Z,96854
2018-05-15T22:37:09.005Z,96849
2018-05-15T22:39:45.364Z,96851
2018-05-15T22:42:16.480Z,96859
2018-05-15T22:44:59.588Z,96860
2018-05-15T22:47:32.035Z,96859
2018-05-15T22:50:15.880Z,96864
2018-05-15T22:52:57.917Z,96859
2018-05-15T22:55:30.202Z,96855
2018-05-15T22:58:00.566Z,96854
2018-05-15T23:00:35.881Z,96849
2018-05-15T23:03:19.478Z,96851
2018-05-15T23:05:54.959Z,96853
2018-05-15T23:08:24.829Z,96845
2018-05-15T23:10:53.129Z,96846
2018-05-15T23:13:40.284Z,96845
2018-05-15T23:16:12.731Z,96842
2018-05-15T23:18:44.686Z,96841
2018-05-15T23:21:21.042Z,96841
2018-05-15T23:24:05.958Z,96840
2018-05-15T23:26:36.992Z,96842
2018-05-15T23:29:09.362Z,96843
2018-05-15T23:31:39.340Z,96837
2018-05-15T23:34:11.866Z,96836
2018-05-15T23:36:41.112Z,96840
2018-05-15T23:39:33.667Z,96834
2018-05-15T23:42:14.219Z,96836
2018-05-15T23:44:47.748Z,96832
2018-05-15T23:47:26.007Z,96833
2018-05-15T23:49:54.359Z,96833
2018-05-15T23:52:31.261Z,96825
2018-05-15T23:55:03.484Z,96827
2018-05-15T23:57:39.920Z,96827
